createdAt,value
2018-07-13T00:04:34.362Z,3.47
2018-07-13T00:09:37.015Z,4.23
2018-07-13T00:14:46.790Z,3.83
2018-07-13T00:19:49.427Z,4.30
2018-07-13T00:24:52.025Z,3.60
2018-07-13T00:29:54.650Z,3.90
2018-07-13T00:34:57.247Z,3.90
2018-07-13T00:39:59.847Z,4.83
2018-07-13T00:45:02.497Z,4.27
2018-07-13T00:50:05.162Z,4.17
2018-07-13T00:55:07.803Z,5.77
2018-07-13T01:00:10.452Z,4.00
2018-07-13T01:05:13.011Z,3.60
2018-07-13T01:10:15.639Z,5.20
2018-07-13T01:15:18.198Z,5.50
2018-07-13T01:20:20.838Z,5.03
2018-07-13T01:25:23.857Z,4.33
2018-07-13T01:30:26.520Z,4.30
2018-07-13T01:35:29.151Z,8.23
2018-07-13T01:40:31.895Z,4.43
2018-07-13T01:45:34.507Z,4.50
2018-07-13T01:50:37.134Z,6.17
2018-07-13T01:55:39.804Z,4.70
2018-07-13T02:00:42.456Z,4.80
2018-07-13T02:05:45.094Z,5.07
2018-07-13T02:10:47.700Z,5.87
2018-07-13T02:15:50.295Z,5.77
2018-07-13T02:20:52.914Z,5.50
2018-07-13T02:25:55.523Z,5.13
2018-07-13T02:30:58.136Z,5.73
2018-07-13T02:36:00.751Z,5.60
2018-07-13T02:41:03.367Z,5.83
2018-07-13T02:46:05.972Z,5.60
2018-07-13T02:51:09.435Z,5.67
2018-07-13T02:56:12.293Z,5.57
2018-07-13T03:01:14.935Z,5.27
2018-07-13T03:06:17.542Z,5.20
2018-07-13T03:11:20.212Z,5.37
2018-07-13T03:16:22.869Z,5.23
2018-07-13T03:21:25.624Z,6.73
2018-07-13T03:26:28.466Z,5.70
2018-07-13T03:31:31.075Z,6.43
2018-07-13T03:36:33.731Z,5.47
2018-07-13T03:41:36.343Z,7.73
2018-07-13T03:46:39.102Z,5.23
2018-07-13T03:51:41.699Z,5.30
2018-07-13T03:56:44.705Z,7.07
2018-07-13T04:01:47.311Z,6.00
2018-07-13T04:06:49.991Z,5.47
2018-07-13T04:11:52.602Z,4.63
2018-07-13T04:16:55.219Z,4.87
2018-07-13T04:21:58.048Z,6.70
2018-07-13T04:27:01.266Z,5.27
2018-07-13T04:32:04.044Z,5.15
2018-07-13T04:37:06.707Z,4.73
2018-07-13T04:42:09.631Z,4.47
2018-07-13T04:47:12.369Z,4.83
2018-07-13T04:52:15.123Z,4.53
2018-07-13T04:57:17.839Z,12.47
2018-07-13T05:02:20.564Z,16.60
2018-07-13T05:07:23.314Z,13.37
2018-07-13T05:12:25.952Z,14.07
2018-07-13T05:17:28.667Z,15.37
2018-07-13T05:22:31.376Z,15.43
2018-07-13T05:27:34.235Z,15.07
2018-07-13T05:32:36.952Z,11.40
2018-07-13T05:37:39.728Z,12.43
2018-07-13T05:42:42.472Z,9.73
2018-07-13T05:47:45.327Z,10.37
2018-07-13T05:52:47.926Z,8.60
2018-07-13T05:57:50.668Z,10.63
2018-07-13T06:02:53.426Z,11.90
2018-07-13T06:07:56.143Z,12.90
2018-07-13T06:12:58.882Z,12.33
2018-07-13T06:18:01.528Z,10.67
2018-07-13T06:23:04.244Z,7.30
2018-07-13T06:28:06.948Z,7.03
2018-07-13T06:33:09.763Z,5.17
2018-07-13T06:38:12.423Z,6.50
2018-07-13T06:43:15.111Z,6.77
2018-07-13T06:48:17.819Z,10.83
2018-07-13T06:53:20.510Z,6.30
2018-07-13T06:58:34.603Z,8.90
2018-07-13T07:04:50.251Z,5.97
2018-07-13T07:09:56.590Z,9.37
2018-07-13T07:14:59.114Z,6.73
2018-07-13T07:20:01.761Z,6.57
2018-07-13T07:25:06.367Z,6.10
2018-07-13T07:30:09.063Z,5.70
2018-07-13T07:35:11.755Z,6.50
2018-07-13T07:40:14.345Z,7.60
2018-07-13T07:45:17.134Z,8.53
2018-07-13T07:50:19.790Z,6.53
2018-07-13T07:55:22.466Z,6.00
2018-07-13T08:00:25.135Z,6.70
2018-07-13T08:05:27.906Z,6.13
2018-07-13T08:10:30.565Z,7.07
2018-07-13T08:15:33.202Z,7.00
2018-07-13T08:20:36.854Z,4.73
2018-07-13T08:25:41.371Z,5.90
2018-07-13T08:30:50.183Z,3.33
2018-07-13T08:35:52.855Z,4.97
2018-07-13T08:40:55.555Z,3.00
2018-07-13T08:45:58.248Z,7.40
2018-07-13T08:51:00.912Z,4.03
2018-07-13T08:56:03.708Z,2.90
2018-07-13T09:01:06.452Z,2.77
2018-07-13T09:06:09.454Z,3.43
2018-07-13T09:11:12.110Z,4.10
2018-07-13T09:16:14.891Z,5.80
2018-07-13T09:21:17.557Z,3.80
2018-07-13T09:26:20.291Z,5.10
2018-07-13T09:31:23.076Z,4.60
2018-07-13T09:36:25.927Z,3.20
2018-07-13T09:41:28.612Z,3.53
2018-07-13T09:46:31.314Z,2.53
2018-07-13T09:51:34.231Z,2.50
2018-07-13T09:56:36.836Z,4.60
2018-07-13T10:01:39.533Z,3.43
2018-07-13T10:06:42.201Z,7.20
2018-07-13T10:11:44.935Z,2.20
2018-07-13T10:16:47.711Z,2.97
2018-07-13T10:21:50.587Z,1.90
2018-07-13T10:26:54.435Z,2.03
2018-07-13T10:31:57.206Z,2.23
2018-07-13T10:37:03.746Z,2.23
2018-07-13T10:42:06.701Z,5.37
2018-07-13T10:47:09.494Z,1.77
2018-07-13T10:52:14.565Z,2.97
2018-07-13T10:57:17.238Z,1.97
2018-07-13T11:02:19.989Z,5.30
2018-07-13T11:07:22.787Z,2.37
2018-07-13T11:12:25.568Z,5.05
2018-07-13T11:17:28.235Z,3.95
2018-07-13T11:22:30.935Z,2.25
2018-07-13T11:27:35.365Z,3.45
2018-07-13T11:32:37.962Z,2.87
2018-07-13T11:37:40.579Z,1.92
2018-07-13T11:42:43.192Z,3.80
2018-07-13T11:47:45.959Z,1.95
2018-07-13T11:52:48.566Z,3.95
2018-07-13T11:57:51.226Z,2.47
2018-07-13T12:02:53.912Z,1.98
2018-07-13T12:07:56.588Z,2.25
2018-07-13T12:12:59.219Z,1.70
2018-07-13T12:18:01.962Z,2.72
2018-07-13T12:23:04.728Z,2.65
2018-07-13T12:28:08.107Z,3.95
2018-07-13T12:33:10.714Z,1.73
2018-07-13T12:38:13.407Z,1.80
2018-07-13T12:43:16.359Z,1.57
2018-07-13T12:48:19.022Z,1.92
2018-07-13T12:53:21.643Z,1.60
2018-07-13T12:58:24.379Z,1.70
2018-07-13T13:03:27.029Z,1.90
2018-07-13T13:08:30.099Z,1.67
2018-07-13T13:13:32.747Z,1.80
2018-07-13T13:18:35.431Z,1.80
2018-07-13T13:23:38.072Z,1.80
2018-07-13T13:28:40.696Z,3.85
2018-07-13T13:33:43.322Z,2.72
2018-07-13T13:38:46.321Z,3.08
2018-07-13T13:43:48.980Z,1.70
2018-07-13T13:48:51.602Z,3.17
2018-07-13T13:53:54.520Z,2.65
2018-07-13T13:58:57.136Z,2.08
2018-07-13T14:03:59.862Z,1.87
2018-07-13T14:09:03.227Z,4.70
2018-07-13T14:14:05.863Z,1.50
2018-07-13T14:19:08.608Z,4.62
2018-07-13T14:24:11.218Z,2.33
2018-07-13T14:29:13.837Z,1.82
2018-07-13T14:34:16.448Z,1.90
2018-07-13T14:39:19.067Z,2.30
2018-07-13T14:44:21.705Z,1.60
2018-07-13T14:49:24.239Z,2.87
2018-07-13T14:54:26.903Z,2.87
2018-07-13T14:59:29.495Z,1.55
2018-07-13T15:04:32.123Z,2.55
2018-07-13T15:09:34.752Z,3.12
2018-07-13T15:14:37.366Z,1.98
2018-07-13T15:19:40.009Z,4.83
2018-07-13T15:24:42.671Z,1.80
2018-07-13T15:29:45.340Z,1.60
2018-07-13T15:34:47.938Z,1.70
2018-07-13T15:39:50.787Z,1.60
2018-07-13T15:44:53.447Z,2.20
2018-07-13T15:49:56.180Z,1.70
2018-07-13T15:54:58.814Z,2.83
2018-07-13T16:00:01.443Z,1.62
2018-07-13T16:05:04.196Z,1.70
2018-07-13T16:10:06.831Z,2.25
2018-07-13T16:15:09.556Z,1.60
2018-07-13T16:20:12.179Z,1.60
2018-07-13T16:25:14.875Z,1.92
2018-07-13T16:30:17.918Z,1.30
2018-07-13T16:35:20.660Z,2.15
2018-07-13T16:40:23.482Z,1.50
2018-07-13T16:45:26.203Z,4.92
2018-07-13T16:50:29.508Z,1.70
2018-07-13T16:55:32.123Z,4.40
2018-07-13T17:00:34.771Z,1.82
2018-07-13T17:05:37.539Z,1.50
2018-07-13T17:10:40.177Z,1.75
2018-07-13T17:15:42.811Z,1.60
2018-07-13T17:20:45.502Z,1.50
2018-07-13T17:25:48.254Z,3.17
2018-07-13T17:30:50.923Z,1.52
2018-07-13T17:35:53.576Z,1.87
2018-07-13T17:40:56.274Z,2.03
2018-07-13T17:45:58.934Z,1.80
2018-07-13T17:51:01.624Z,1.63
2018-07-13T17:56:04.262Z,1.37
2018-07-13T18:01:07.155Z,2.10
2018-07-13T18:06:09.774Z,2.37
2018-07-13T18:11:12.411Z,1.80
2018-07-13T18:16:15.175Z,1.80
2018-07-13T18:21:17.953Z,2.00
2018-07-13T18:26:20.601Z,4.00
2018-07-13T18:31:23.252Z,3.10
2018-07-13T18:36:25.897Z,3.53
2018-07-13T18:41:28.555Z,2.17
2018-07-13T18:46:31.173Z,2.20
2018-07-13T18:51:34.306Z,5.00
2018-07-13T18:56:36.987Z,4.83
2018-07-13T19:01:39.645Z,3.93
2018-07-13T19:06:42.289Z,5.03
2018-07-13T19:11:44.952Z,4.50
2018-07-13T19:16:47.691Z,4.90
2018-07-13T19:21:50.333Z,4.47
2018-07-13T19:26:52.972Z,7.30
2018-07-13T19:31:55.724Z,3.10
2018-07-13T19:36:58.282Z,3.83
2018-07-13T19:42:00.936Z,2.80
2018-07-13T19:47:03.580Z,3.30
2018-07-13T19:52:06.274Z,3.77
2018-07-13T19:57:08.964Z,2.53
2018-07-13T20:02:11.622Z,4.23
2018-07-13T20:07:14.304Z,2.97
2018-07-13T20:12:16.998Z,2.97
2018-07-13T20:17:19.803Z,2.80
2018-07-13T20:22:22.564Z,2.90
2018-07-13T20:27:25.204Z,2.93
2018-07-13T20:32:27.827Z,4.53
2018-07-13T20:37:30.461Z,2.73
2018-07-13T20:42:33.166Z,4.73
2018-07-13T20:47:35.798Z,3.00
2018-07-13T20:52:38.480Z,3.10
2018-07-13T20:57:41.085Z,3.87
2018-07-13T21:02:43.800Z,5.50
2018-07-13T21:07:46.487Z,4.95
2018-07-13T21:12:49.229Z,2.93
2018-07-13T21:17:51.862Z,3.80
2018-07-13T21:22:54.637Z,3.80
2018-07-13T21:27:57.351Z,3.73
2018-07-13T21:32:59.979Z,4.23
2018-07-13T21:38:02.663Z,3.23
2018-07-13T21:43:05.220Z,3.43
2018-07-13T21:48:07.850Z,3.43
2018-07-13T21:53:10.490Z,3.53
2018-07-13T21:58:13.148Z,7.20
2018-07-13T22:03:15.901Z,4.57
2018-07-13T22:08:18.544Z,4.90
2018-07-13T22:13:21.216Z,3.40
2018-07-13T22:18:23.812Z,3.37
2018-07-13T22:23:26.791Z,6.43
2018-07-13T22:28:29.330Z,3.70
2018-07-13T22:33:32.003Z,3.37
2018-07-13T22:38:34.730Z,4.17
2018-07-13T22:43:37.344Z,4.43
2018-07-13T22:48:39.995Z,3.70
2018-07-13T22:53:42.647Z,3.53
2018-07-13T22:58:45.331Z,4.67
2018-07-13T23:03:47.943Z,5.13
2018-07-13T23:08:50.680Z,4.00
2018-07-13T23:13:53.308Z,5.27
2018-07-13T23:18:56.242Z,3.80
2018-07-13T23:23:58.919Z,3.20
2018-07-13T23:29:01.500Z,4.70
2018-07-13T23:34:04.163Z,4.03
2018-07-13T23:39:06.791Z,3.40
2018-07-13T23:44:09.451Z,3.97
2018-07-13T23:49:12.191Z,3.77
2018-07-13T23:54:14.796Z,3.60
2018-07-13T23:59:17.442Z,3.80
